• Join FlightAware (Why Join?)
  • Login
  • US Flag 
08:23AM EST


 

Airport Tracker/Info


-or-


 

Live Flight TrackerFlight Track Log ✈ SWA558 ✈ 15-Apr-2013 ✈ KMDW - KAUS

Flight Track Log - Related Links

Times and Time Zones

All times are in EDT time to prevent confusion due to time zone crossing. See the SWA558 flight status page for this flight to view local times or setup timezone preferences in your user account.

Time Position Orientation Groundspeed Altitude Reporting Facility
EDT Latitude Longitude Course Direction KTS MPH feet Rate Location/Type
03:44PM 41.7167 -87.8167 217° Southwest 219 252 3,800  Level Chicago TRACON
03:45PM 41.6433 -87.9044 222° Southwest 234 269 10,300 3,480 Climbing Chicago Center
03:46PM 41.5892 -87.9678 221° Southwest 254 292 13,200 2,700 Climbing Chicago Center
03:47PM 41.5261 -88.0400 221° Southwest 295 339 15,900 3,240 Climbing Chicago Center
03:48PM 41.4500 -88.1272 221° Southwest 311 358 19,900 2,940 Climbing Chicago Center
03:50PM 41.3769 -88.1933 214° Southwest 332 382 22,000 1,980 Climbing Chicago Center
03:51PM 41.2839 -88.2344 198° South 357 411 24,000 1,740 Climbing Chicago Center
03:52PM 41.2017 -88.3028 212° Southwest 348 400 25,600 1,440 Climbing Chicago Center
03:53PM 41.1217 -88.3806 216° Southwest 356 410 27,000 1,320 Climbing Chicago Center
03:54PM 41.0247 -88.4744 216° Southwest 361 415 28,400 1,200 Climbing Chicago Center
03:55PM 40.9408 -88.5564 216° Southwest 371 427 29,600 1,200 Climbing Chicago Center
03:56PM 40.8508 -88.6417 216° Southwest 392 451 30,900 1,500 Climbing Chicago Center
03:57PM 40.7603 -88.7281 216° Southwest 402 463 32,800 1,620 Climbing Chicago Center
03:58PM 40.6714 -88.8142 216° Southwest 400 460 34,300 1,620 Climbing Chicago Center
03:59PM 40.5650 -88.9133 215° Southwest 397 457 36,200 1,680 Climbing Chicago Center
04:00PM 40.4775 -88.9975 216° Southwest 392 451 37,800 780 Climbing Chicago Center
04:01PM 40.3897 -89.0803 216° Southwest 389 448 37,900  Climbing Chicago Center
04:02PM 40.3047 -89.1594 215° Southwest 376 433 37,900  Level Chicago Center
04:03PM 40.2172 -89.2400 215° Southwest 381 438 37,900  Level Chicago Center
04:04PM 40.1294 -89.3236 216° Southwest 385 443 37,900  Level Chicago Center
04:05PM 40.0417 -89.4064 216° Southwest 387 445 37,900  Level Chicago Center
04:06PM 39.9592 -89.4953 220° Southwest 384 442 37,900  Level Chicago Center
04:07PM 39.8625 -89.6067 222° Southwest 385 443 37,900  Level Chicago Center
04:08PM 39.7803 -89.6997 221° Southwest 386 444 37,900  Level Kansas City Center
04:09PM 39.7200 -89.8117 235° Southwest 381 438 38,000  Climbing Kansas City Center
04:10PM 39.6581 -89.9256 235° Southwest 378 435 37,900 -60 Descending Kansas City Center
04:11PM 39.5969 -90.0367 235° Southwest 379 436 37,900  Level Kansas City Center
04:12PM 39.5275 -90.1406 229° Southwest 385 443 37,900  Level Kansas City Center
04:13PM 39.4408 -90.2239 217° Southwest 390 449 37,900  Level Kansas City Center
04:14PM 39.3564 -90.3081 218° Southwest 388 447 37,900  Level Kansas City Center
04:15PM 39.2539 -90.4089 217° Southwest 388 447 37,900  Level Kansas City Center
04:16PM 39.1683 -90.4925 217° Southwest 388 447 37,900  Level Kansas City Center
04:17PM 39.0831 -90.5764 217° Southwest 387 445 37,900  Level Kansas City Center
04:18PM 38.9969 -90.6600 217° Southwest 390 449 37,900  Level Kansas City Center
04:19PM 38.9133 -90.7417 217° Southwest 384 442 37,900  Level Kansas City Center
04:20PM 38.8092 -90.8417 217° Southwest 391 450 37,900  Level Kansas City Center
04:22PM 38.7236 -90.9225 216° Southwest 389 448 37,900  Level Kansas City Center
04:23PM 38.6372 -91.0053 217° Southwest 390 449 37,900  Level Kansas City Center
04:24PM 38.5492 -91.0900 217° Southwest 396 456 37,900  Level Kansas City Center
04:25PM 38.4619 -91.1725 217° Southwest 395 455 37,900  Level Kansas City Center
04:26PM 38.3572 -91.2714 217° Southwest 393 452 37,900  Level Kansas City Center
04:27PM 38.2669 -91.3536 216° Southwest 402 463 37,900  Level Kansas City Center
04:28PM 38.1853 -91.4303 216° Southwest 389 448 37,900  Level Kansas City Center
04:29PM 38.0961 -91.5150 217° Southwest 393 452 37,900  Level Kansas City Center
04:30PM 37.9922 -91.6133 217° Southwest 387 445 37,900  Level Kansas City Center
04:31PM 37.9031 -91.6947 216° Southwest 388 447 37,900  Level Kansas City Center
04:32PM 37.8167 -91.7764 217° Southwest 386 444 37,900  Level Kansas City Center
04:33PM 37.7292 -91.8586 217° Southwest 385 443 37,900  Level Kansas City Center
04:34PM 37.6394 -91.9414 216° Southwest 389 448 37,900  Level Kansas City Center
04:35PM 37.5503 -92.0264 217° Southwest 395 455 37,900  Level Kansas City Center
04:36PM 37.4606 -92.1078 216° Southwest 394 453 37,900  Level Kansas City Center
04:37PM 37.3722 -92.1903 217° Southwest 393 452 37,900  Level Kansas City Center
04:38PM 37.2653 -92.2875 216° Southwest 392 451 37,900  Level Kansas City Center
04:39PM 37.1767 -92.3686 216° Southwest 391 450 37,900  Level Kansas City Center
04:40PM 37.0897 -92.4486 216° Southwest 388 447 37,900  Level Kansas City Center
04:41PM 37.0017 -92.5275 216° Southwest 388 447 37,900  Level Kansas City Center
04:42PM 36.9128 -92.6081 216° Southwest 389 448 37,900  Level Kansas City Center
04:43PM 36.8239 -92.6889 216° Southwest 391 450 37,900  Level Kansas City Center
04:44PM 36.7867 -92.7222 216° Southwest 410 472 37,900  Level Memphis Center
04:45PM 36.6975 -92.8025 216° Southwest 410 472 37,900  Level Memphis Center
04:46PM 36.6083 -92.8797 215° Southwest 410 472 37,900  Level Memphis Center
04:47PM 36.5214 -92.9597 216° Southwest 410 472 37,900  Level Memphis Center
04:48PM 36.4322 -93.0394 216° Southwest 410 472 37,900  Level Memphis Center
04:49PM 36.3450 -93.1192 216° Southwest 410 472 37,900  Level Memphis Center
04:50PM 36.2558 -93.1933 214° Southwest 404 465 37,900  Level Memphis Center
04:51PM 36.1683 -93.2700 215° Southwest 399 459 37,900  Level Memphis Center
04:52PM 36.0811 -93.3464 215° Southwest 393 452 37,900  Level Memphis Center
04:53PM 35.9939 -93.4253 216° Southwest 393 452 37,900  Level Memphis Center
04:54PM 35.9042 -93.5014 215° Southwest 393 452 37,900  Level Memphis Center
04:55PM 35.8167 -93.5800 216° Southwest 388 447 37,900  Level Memphis Center
04:56PM 35.7250 -93.6583 215° Southwest 393 452 37,900  Level Memphis Center
04:57PM 35.6333 -93.7364 215° Southwest 393 452 37,900  Level Memphis Center
04:58PM 35.5478 -93.8144 217° Southwest 393 452 37,900  Level Memphis Center
04:59PM 35.4558 -93.8897 214° Southwest 393 452 37,900  Level Memphis Center
05:00PM 35.3642 -93.9672 215° Southwest 393 452 37,900  Level Memphis Center
05:01PM 35.2761 -94.0450 216° Southwest 393 452 38,000  Climbing Memphis Center
05:02PM 35.1864 -94.1222 215° Southwest 393 452 37,900 -60 Descending Memphis Center
05:03PM 35.0183 -94.2650 215° Southwest 386 444 37,900  Level Fort Worth Center
05:04PM 34.9286 -94.3417 215° Southwest 386 444 38,000  Climbing Fort Worth Center
05:05PM 34.8469 -94.4103 215° Southwest 393 452 38,000 -60 Level Fort Worth Center
05:06PM 34.7567 -94.4842 214° Southwest 393 452 37,900 -60 Descending Fort Worth Center
05:07PM 34.6647 -94.5658 216° Southwest 398 458 37,900  Level Fort Worth Center
05:08PM 34.5767 -94.6392 214° Southwest 398 458 38,000  Climbing Fort Worth Center
05:09PM 34.4847 -94.7203 216° Southwest 398 458 37,900 -60 Descending Fort Worth Center
05:10PM 34.3983 -94.7908 214° Southwest 393 452 37,900  Level Fort Worth Center
05:11PM 34.3042 -94.8692 215° Southwest 398 458 38,000  Climbing Fort Worth Center
05:12PM 34.2117 -94.9447 214° Southwest 398 458 37,900  Descending Fort Worth Center
05:13PM 34.1194 -95.0228 215° Southwest 398 458 38,000  Climbing Fort Worth Center
05:14PM 34.0308 -95.0953 214° Southwest 398 458 37,900 -60 Descending Fort Worth Center
05:15PM 33.9383 -95.1703 214° Southwest 393 452 37,900  Level Fort Worth Center
05:16PM 33.8458 -95.2453 214° Southwest 398 458 38,000  Climbing Fort Worth Center
05:17PM 33.7531 -95.3200 214° Southwest 398 458 37,900 -60 Descending Fort Worth Center
05:18PM 33.6647 -95.3944 215° Southwest 398 458 37,900  Level Fort Worth Center
05:19PM 33.5739 -95.4664 213° Southwest 398 458 37,900  Level Fort Worth Center
05:20PM 33.4833 -95.5381 213° Southwest 398 458 37,900  Level Fort Worth Center
05:21PM 33.3925 -95.6097 213° Southwest 391 450 37,900  Level Fort Worth Center
05:22PM 33.3058 -95.6836 215° Southwest 396 456 37,900  Level Fort Worth Center
05:23PM 33.2128 -95.7547 213° Southwest 396 456 37,900  Level Fort Worth Center
05:24PM 33.1242 -95.8308 216° Southwest 396 456 37,900  Level Fort Worth Center
05:25PM 33.0289 -95.9044 213° Southwest 396 456 38,000  Climbing Fort Worth Center
05:26PM 32.9317 -95.9853 215° Southwest 396 456 38,000 -60 Level Fort Worth Center
05:27PM 32.8386 -96.0583 213° Southwest 396 456 37,900  Descending Fort Worth Center
05:28PM 32.7456 -96.1289 213° Southwest 396 456 38,000  Climbing Fort Worth Center
05:29PM 32.6544 -96.2044 215° Southwest 396 456 37,900 -60 Descending Fort Worth Center
05:30PM 32.5631 -96.2769 214° Southwest 396 456 37,900  Level Fort Worth Center
05:31PM 32.4697 -96.3497 213° Southwest 396 456 37,900  Level Fort Worth Center
05:32PM 32.3786 -96.4197 213° Southwest 396 456 38,000  Climbing Fort Worth Center
05:33PM 32.2975 -96.4844 214° Southwest 396 456 37,900 -540 Descending Fort Worth Center
05:34PM 32.2000 -96.5467 208° Southwest 391 450 37,000 -960 Descending Fort Worth Center
05:35PM 32.1044 -96.6139 211° Southwest 397 457 36,000 -960 Descending Fort Worth Center
05:36PM 32.0108 -96.6758 209° Southwest 397 457 35,100 -960 Descending Fort Worth Center
05:37PM 31.9067 -96.7503 211° Southwest 397 457 34,100 -1,020 Descending Fort Worth Center
05:38PM 31.8089 -96.8119 208° Southwest 397 457 33,100 -1,020 Descending Fort Worth Center
05:39PM 31.7133 -96.8786 211° Southwest 402 463 32,100 -1,500 Descending Fort Worth Center
05:40PM 31.6111 -96.9450 209° Southwest 407 468 30,200 -2,160 Descending Fort Worth Center
05:42PM 31.5014 -97.0172 209° Southwest 398 458 27,300 -2,340 Descending Houston Center
05:43PM 31.4072 -97.0789 209° Southwest 386 444 24,900 -2,280 Descending Houston Center
05:44PM 31.3164 -97.1389 209° Southwest 373 429 22,600 -2,400 Descending Houston Center
05:45PM 31.2125 -97.2064 209° Southwest 364 419 20,000 -1,260 Descending Houston Center
05:46PM 31.1178 -97.2453 199° South 357 411 20,000 -1,020 Level Houston Center
05:47PM 31.0247 -97.2814 198° South 352 405 18,000 -2,040 Descending Houston Center
05:48PM 30.9325 -97.3164 198° South 347 399 15,800 -2,220 Descending Houston Center
05:49PM 30.8331 -97.3550 198° South 338 389 13,500 -2,280 Descending Houston Center
05:50PM 30.7561 -97.4044 209° Southwest 320 368 11,100 -1,920 Descending Houston Center
05:51PM 30.6872 -97.4619 216° Southwest 304 350 9,600 -1,740 Descending Houston Center
05:52PM 30.6253 -97.5167 217° Southwest 284 327 7,600 -1,800 Descending Houston Center
05:53PM 30.5647 -97.5689 217° Southwest 273 314 5,900 -1,680 Descending Houston Center
05:54PM 30.5078 -97.6183 217° Southwest 260 299 4,200 -1,440 Descending Houston Center
05:55PM 30.4422 -97.6436 198° South 249 287 3,000 -840 Descending Houston Center
05:56PM 30.3711 -97.6742 200° South 237 273 2,500 -300 Descending Houston Center
05:57PM 30.3211 -97.6828 188° South 201 231 2,500  Level Houston Center